sensor_id;sensor_type;location;lat;lon;timestamp;P1;durP1;ratioP1;P2;durP2;ratioP2
16662;SDS011;8445;51.270;9.434;2023-11-19T00:00:56;7.10;;;6.70;;
16662;SDS011;8445;51.270;9.434;2023-11-19T00:03:22;7.50;;;7.00;;
16662;SDS011;8445;51.270;9.434;2023-11-19T00:05:48;6.67;;;6.23;;
16662;SDS011;8445;51.270;9.434;2023-11-19T00:08:15;7.40;;;6.90;;
16662;SDS011;8445;51.270;9.434;2023-11-19T00:10:41;7.67;;;7.07;;
16662;SDS011;8445;51.270;9.434;2023-11-19T00:13:07;7.77;;;7.17;;
16662;SDS011;8445;51.270;9.434;2023-11-19T00:15:37;7.43;;;6.93;;
16662;SDS011;8445;51.270;9.434;2023-11-19T00:18:03;7.00;;;6.60;;
16662;SDS011;8445;51.270;9.434;2023-11-19T00:20:29;7.10;;;6.70;;
16662;SDS011;8445;51.270;9.434;2023-11-19T00:22:56;7.40;;;6.80;;
16662;SDS011;8445;51.270;9.434;2023-11-19T00:25:22;6.80;;;6.40;;
16662;SDS011;8445;51.270;9.434;2023-11-19T00:27:49;7.47;;;6.97;;
16662;SDS011;8445;51.270;9.434;2023-11-19T00:30:19;7.20;;;6.70;;
16662;SDS011;8445;51.270;9.434;2023-11-19T00:32:45;7.33;;;6.80;;
16662;SDS011;8445;51.270;9.434;2023-11-19T00:35:11;7.13;;;6.73;;
16662;SDS011;8445;51.270;9.434;2023-11-19T00:37:39;7.87;;;7.27;;
16662;SDS011;8445;51.270;9.434;2023-11-19T00:40:05;7.43;;;6.83;;
16662;SDS011;8445;51.270;9.434;2023-11-19T00:42:36;7.27;;;6.77;;
16662;SDS011;8445;51.270;9.434;2023-11-19T00:45:11;7.07;;;6.67;;
16662;SDS011;8445;51.270;9.434;2023-11-19T00:47:47;8.07;;;7.27;;
16662;SDS011;8445;51.270;9.434;2023-11-19T00:50:16;8.00;;;7.50;;
16662;SDS011;8445;51.270;9.434;2023-11-19T00:52:45;7.13;;;6.67;;
16662;SDS011;8445;51.270;9.434;2023-11-19T00:55:20;6.67;;;6.27;;
16662;SDS011;8445;51.270;9.434;2023-11-19T00:57:51;7.30;;;6.80;;
16662;SDS011;8445;51.270;9.434;2023-11-19T01:00:24;7.23;;;6.67;;
16662;SDS011;8445;51.270;9.434;2023-11-19T01:02:58;7.23;;;6.83;;
16662;SDS011;8445;51.270;9.434;2023-11-19T01:05:25;8.10;;;7.40;;
16662;SDS011;8445;51.270;9.434;2023-11-19T01:07:54;6.93;;;6.50;;
16662;SDS011;8445;51.270;9.434;2023-11-19T01:10:20;6.47;;;6.17;;
16662;SDS011;8445;51.270;9.434;2023-11-19T01:12:46;6.90;;;6.53;;
16662;SDS011;8445;51.270;9.434;2023-11-19T01:15:12;7.27;;;6.67;;
16662;SDS011;8445;51.270;9.434;2023-11-19T01:17:38;7.57;;;7.10;;
16662;SDS011;8445;51.270;9.434;2023-11-19T01:20:04;7.03;;;6.63;;
16662;SDS011;8445;51.270;9.434;2023-11-19T01:22:34;7.70;;;7.30;;
16662;SDS011;8445;51.270;9.434;2023-11-19T01:25:00;6.90;;;6.50;;
16662;SDS011;8445;51.270;9.434;2023-11-19T01:27:27;7.10;;;6.70;;
16662;SDS011;8445;51.270;9.434;2023-11-19T01:29:54;7.60;;;7.20;;
16662;SDS011;8445;51.270;9.434;2023-11-19T01:32:22;7.03;;;6.63;;
16662;SDS011;8445;51.270;9.434;2023-11-19T01:34:49;7.67;;;7.17;;
16662;SDS011;8445;51.270;9.434;2023-11-19T01:37:15;7.13;;;6.73;;
16662;SDS011;8445;51.270;9.434;2023-11-19T01:39:44;7.43;;;7.03;;
16662;SDS011;8445;51.270;9.434;2023-11-19T01:42:10;7.53;;;7.13;;
16662;SDS011;8445;51.270;9.434;2023-11-19T01:44:40;7.97;;;7.57;;
16662;SDS011;8445;51.270;9.434;2023-11-19T01:47:06;7.57;;;7.07;;
16662;SDS011;8445;51.270;9.434;2023-11-19T01:49:33;7.83;;;7.33;;
16662;SDS011;8445;51.270;9.434;2023-11-19T01:52:00;8.07;;;7.57;;
16662;SDS011;8445;51.270;9.434;2023-11-19T01:54:26;7.70;;;7.00;;
16662;SDS011;8445;51.270;9.434;2023-11-19T01:56:55;7.60;;;7.00;;
16662;SDS011;8445;51.270;9.434;2023-11-19T01:59:23;8.07;;;7.50;;
16662;SDS011;8445;51.270;9.434;2023-11-19T02:01:53;8.03;;;7.53;;
16662;SDS011;8445;51.270;9.434;2023-11-19T02:04:23;8.40;;;7.90;;
16662;SDS011;8445;51.270;9.434;2023-11-19T02:06:51;8.60;;;8.00;;
16662;SDS011;8445;51.270;9.434;2023-11-19T02:09:24;8.70;;;8.18;;
16662;SDS011;8445;51.270;9.434;2023-11-19T02:11:50;9.23;;;8.63;;
16662;SDS011;8445;51.270;9.434;2023-11-19T02:14:17;9.40;;;8.80;;
16662;SDS011;8445;51.270;9.434;2023-11-19T02:16:43;9.80;;;9.10;;
16662;SDS011;8445;51.270;9.434;2023-11-19T02:19:09;9.70;;;9.00;;
16662;SDS011;8445;51.270;9.434;2023-11-19T02:21:37;9.23;;;8.63;;
16662;SDS011;8445;51.270;9.434;2023-11-19T02:24:05;10.63;;;9.00;;
16662;SDS011;8445;51.270;9.434;2023-11-19T02:26:44;9.90;;;9.27;;
16662;SDS011;8445;51.270;9.434;2023-11-19T02:29:33;9.97;;;9.33;;
16662;SDS011;8445;51.270;9.434;2023-11-19T02:32:04;9.50;;;8.90;;
16662;SDS011;8445;51.270;9.434;2023-11-19T02:34:39;10.03;;;9.33;;
16662;SDS011;8445;51.270;9.434;2023-11-19T02:37:07;10.10;;;9.40;;
16662;SDS011;8445;51.270;9.434;2023-11-19T02:39:35;10.37;;;9.60;;
16662;SDS011;8445;51.270;9.434;2023-11-19T02:42:08;10.83;;;9.93;;
16662;SDS011;8445;51.270;9.434;2023-11-19T02:44:34;10.57;;;9.87;;
16662;SDS011;8445;51.270;9.434;2023-11-19T02:47:00;10.73;;;9.77;;
16662;SDS011;8445;51.270;9.434;2023-11-19T02:49:28;11.23;;;10.33;;
16662;SDS011;8445;51.270;9.434;2023-11-19T02:51:55;10.60;;;9.80;;
16662;SDS011;8445;51.270;9.434;2023-11-19T02:54:21;10.60;;;9.80;;
16662;SDS011;8445;51.270;9.434;2023-11-19T02:56:52;10.77;;;10.07;;
16662;SDS011;8445;51.270;9.434;2023-11-19T02:59:24;10.43;;;9.73;;
16662;SDS011;8445;51.270;9.434;2023-11-19T03:01:53;10.20;;;9.53;;
16662;SDS011;8445;51.270;9.434;2023-11-19T03:04:20;9.07;;;8.47;;
16662;SDS011;8445;51.270;9.434;2023-11-19T03:06:48;10.73;;;9.97;;
16662;SDS011;8445;51.270;9.434;2023-11-19T03:09:14;9.80;;;9.10;;
16662;SDS011;8445;51.270;9.434;2023-11-19T03:11:40;10.23;;;9.53;;
16662;SDS011;8445;51.270;9.434;2023-11-19T03:14:05;10.43;;;9.73;;
16662;SDS011;8445;51.270;9.434;2023-11-19T03:16:32;10.60;;;9.90;;
16662;SDS011;8445;51.270;9.434;2023-11-19T03:18:58;10.23;;;9.43;;
16662;SDS011;8445;51.270;9.434;2023-11-19T03:21:29;10.23;;;9.53;;
16662;SDS011;8445;51.270;9.434;2023-11-19T03:23:56;9.90;;;9.20;;
16662;SDS011;8445;51.270;9.434;2023-11-19T03:26:27;10.10;;;9.40;;
16662;SDS011;8445;51.270;9.434;2023-11-19T03:28:53;11.00;;;10.00;;
16662;SDS011;8445;51.270;9.434;2023-11-19T03:31:19;9.87;;;9.27;;
16662;SDS011;8445;51.270;9.434;2023-11-19T03:33:45;10.20;;;9.50;;
16662;SDS011;8445;51.270;9.434;2023-11-19T03:36:11;9.10;;;8.50;;
16662;SDS011;8445;51.270;9.434;2023-11-19T03:38:38;8.73;;;8.03;;
16662;SDS011;8445;51.270;9.434;2023-11-19T03:41:13;8.43;;;7.90;;
16662;SDS011;8445;51.270;9.434;2023-11-19T03:43:41;8.27;;;7.77;;
16662;SDS011;8445;51.270;9.434;2023-11-19T03:46:20;9.30;;;8.60;;
16662;SDS011;8445;51.270;9.434;2023-11-19T03:48:48;9.50;;;8.90;;
16662;SDS011;8445;51.270;9.434;2023-11-19T03:51:14;10.33;;;9.33;;
16662;SDS011;8445;51.270;9.434;2023-11-19T03:53:45;10.27;;;9.57;;
16662;SDS011;8445;51.270;9.434;2023-11-19T03:56:11;10.57;;;9.87;;
16662;SDS011;8445;51.270;9.434;2023-11-19T03:58:38;11.50;;;10.23;;
16662;SDS011;8445;51.270;9.434;2023-11-19T04:01:05;11.63;;;10.73;;
16662;SDS011;8445;51.270;9.434;2023-11-19T04:03:35;11.60;;;10.70;;
16662;SDS011;8445;51.270;9.434;2023-11-19T04:06:01;11.10;;;10.40;;
16662;SDS011;8445;51.270;9.434;2023-11-19T04:08:28;11.90;;;11.00;;
16662;SDS011;8445;51.270;9.434;2023-11-19T04:10:54;11.13;;;10.23;;
16662;SDS011;8445;51.270;9.434;2023-11-19T04:13:20;11.43;;;10.57;;
16662;SDS011;8445;51.270;9.434;2023-11-19T04:15:46;11.03;;;10.23;;
16662;SDS011;8445;51.270;9.434;2023-11-19T04:18:11;10.03;;;9.33;;
16662;SDS011;8445;51.270;9.434;2023-11-19T04:20:37;10.13;;;9.43;;
16662;SDS011;8445;51.270;9.434;2023-11-19T04:23:03;11.10;;;10.30;;
16662;SDS011;8445;51.270;9.434;2023-11-19T04:25:29;10.60;;;9.70;;
16662;SDS011;8445;51.270;9.434;2023-11-19T04:27:55;10.27;;;9.57;;
16662;SDS011;8445;51.270;9.434;2023-11-19T04:30:21;11.57;;;10.67;;
16662;SDS011;8445;51.270;9.434;2023-11-19T04:32:47;11.57;;;10.77;;
16662;SDS011;8445;51.270;9.434;2023-11-19T04:35:15;11.20;;;10.40;;
16662;SDS011;8445;51.270;9.434;2023-11-19T04:37:42;11.63;;;10.83;;
16662;SDS011;8445;51.270;9.434;2023-11-19T04:40:07;11.00;;;10.10;;
16662;SDS011;8445;51.270;9.434;2023-11-19T04:42:34;10.47;;;9.57;;
16662;SDS011;8445;51.270;9.434;2023-11-19T04:45:01;11.15;;;10.27;;
16662;SDS011;8445;51.270;9.434;2023-11-19T04:47:26;10.20;;;9.50;;
16662;SDS011;8445;51.270;9.434;2023-11-19T04:49:52;10.10;;;9.40;;
16662;SDS011;8445;51.270;9.434;2023-11-19T04:52:18;10.60;;;9.70;;
16662;SDS011;8445;51.270;9.434;2023-11-19T04:54:44;10.37;;;9.57;;
16662;SDS011;8445;51.270;9.434;2023-11-19T04:57:10;10.47;;;9.77;;
16662;SDS011;8445;51.270;9.434;2023-11-19T04:59:36;11.15;;;10.35;;
16662;SDS011;8445;51.270;9.434;2023-11-19T05:02:02;9.93;;;9.23;;
16662;SDS011;8445;51.270;9.434;2023-11-19T05:04:30;10.53;;;9.83;;
16662;SDS011;8445;51.270;9.434;2023-11-19T05:06:56;10.60;;;9.90;;
16662;SDS011;8445;51.270;9.434;2023-11-19T05:09:22;10.45;;;9.68;;
16662;SDS011;8445;51.270;9.434;2023-11-19T05:11:48;10.17;;;9.37;;
16662;SDS011;8445;51.270;9.434;2023-11-19T05:14:14;9.93;;;9.23;;
16662;SDS011;8445;51.270;9.434;2023-11-19T05:16:40;10.57;;;9.87;;
16662;SDS011;8445;51.270;9.434;2023-11-19T05:19:06;10.40;;;9.68;;
16662;SDS011;8445;51.270;9.434;2023-11-19T05:21:32;9.97;;;9.27;;
16662;SDS011;8445;51.270;9.434;2023-11-19T05:23:59;10.13;;;9.43;;
16662;SDS011;8445;51.270;9.434;2023-11-19T05:26:25;10.17;;;9.47;;
16662;SDS011;8445;51.270;9.434;2023-11-19T05:28:51;9.68;;;9.02;;
16662;SDS011;8445;51.270;9.434;2023-11-19T05:31:17;10.48;;;9.70;;
16662;SDS011;8445;51.270;9.434;2023-11-19T05:33:43;10.80;;;9.85;;
16662;SDS011;8445;51.270;9.434;2023-11-19T05:36:10;9.90;;;9.20;;
16662;SDS011;8445;51.270;9.434;2023-11-19T05:38:40;9.20;;;8.57;;
16662;SDS011;8445;51.270;9.434;2023-11-19T05:41:06;10.00;;;9.10;;
16662;SDS011;8445;51.270;9.434;2023-11-19T05:43:32;9.32;;;8.73;;
16662;SDS011;8445;51.270;9.434;2023-11-19T05:45:59;9.60;;;8.90;;
16662;SDS011;8445;51.270;9.434;2023-11-19T05:48:26;9.50;;;8.90;;
16662;SDS011;8445;51.270;9.434;2023-11-19T05:50:53;9.20;;;8.60;;
16662;SDS011;8445;51.270;9.434;2023-11-19T05:53:20;10.35;;;8.77;;
16662;SDS011;8445;51.270;9.434;2023-11-19T05:55:46;9.37;;;8.70;;
16662;SDS011;8445;51.270;9.434;2023-11-19T05:58:20;9.33;;;8.63;;
16662;SDS011;8445;51.270;9.434;2023-11-19T06:00:57;9.00;;;8.30;;
16662;SDS011;8445;51.270;9.434;2023-11-19T06:03:26;8.85;;;8.25;;
16662;SDS011;8445;51.270;9.434;2023-11-19T06:05:52;9.70;;;8.87;;
16662;SDS011;8445;51.270;9.434;2023-11-19T06:08:19;9.27;;;8.57;;
16662;SDS011;8445;51.270;9.434;2023-11-19T06:10:46;9.30;;;8.70;;
16662;SDS011;8445;51.270;9.434;2023-11-19T06:13:12;8.50;;;7.93;;
16662;SDS011;8445;51.270;9.434;2023-11-19T06:15:41;9.27;;;8.40;;
16662;SDS011;8445;51.270;9.434;2023-11-19T06:18:08;8.50;;;8.00;;
16662;SDS011;8445;51.270;9.434;2023-11-19T06:20:35;8.80;;;8.00;;
16662;SDS011;8445;51.270;9.434;2023-11-19T06:23:00;8.45;;;7.93;;
16662;SDS011;8445;51.270;9.434;2023-11-19T06:25:26;9.35;;;8.65;;
16662;SDS011;8445;51.270;9.434;2023-11-19T06:27:53;9.50;;;8.70;;
16662;SDS011;8445;51.270;9.434;2023-11-19T06:30:19;9.50;;;8.80;;
16662;SDS011;8445;51.270;9.434;2023-11-19T06:32:45;10.25;;;9.35;;
16662;SDS011;8445;51.270;9.434;2023-11-19T06:35:12;9.07;;;8.37;;
16662;SDS011;8445;51.270;9.434;2023-11-19T06:37:39;9.07;;;8.40;;
16662;SDS011;8445;51.270;9.434;2023-11-19T06:40:06;9.85;;;9.02;;
16662;SDS011;8445;51.270;9.434;2023-11-19T06:42:34;10.67;;;9.03;;
16662;SDS011;8445;51.270;9.434;2023-11-19T06:45:01;9.65;;;8.80;;
16662;SDS011;8445;51.270;9.434;2023-11-19T06:47:28;8.63;;;8.02;;
16662;SDS011;8445;51.270;9.434;2023-11-19T06:49:55;8.77;;;8.17;;
16662;SDS011;8445;51.270;9.434;2023-11-19T06:52:21;9.52;;;8.57;;
16662;SDS011;8445;51.270;9.434;2023-11-19T06:54:47;8.68;;;8.07;;
16662;SDS011;8445;51.270;9.434;2023-11-19T06:57:13;9.18;;;8.48;;
16662;SDS011;8445;51.270;9.434;2023-11-19T06:59:39;9.15;;;8.38;;
16662;SDS011;8445;51.270;9.434;2023-11-19T07:02:06;9.20;;;8.60;;
16662;SDS011;8445;51.270;9.434;2023-11-19T07:04:32;8.83;;;8.17;;
16662;SDS011;8445;51.270;9.434;2023-11-19T07:07:00;8.40;;;7.65;;
16662;SDS011;8445;51.270;9.434;2023-11-19T07:09:26;8.15;;;7.55;;
16662;SDS011;8445;51.270;9.434;2023-11-19T07:11:52;8.65;;;8.10;;
16662;SDS011;8445;51.270;9.434;2023-11-19T07:14:18;8.38;;;7.60;;
16662;SDS011;8445;51.270;9.434;2023-11-19T07:16:45;8.63;;;7.93;;
16662;SDS011;8445;51.270;9.434;2023-11-19T07:19:11;7.78;;;7.22;;
16662;SDS011;8445;51.270;9.434;2023-11-19T07:21:37;9.05;;;7.60;;
16662;SDS011;8445;51.270;9.434;2023-11-19T07:24:12;8.70;;;7.82;;
16662;SDS011;8445;51.270;9.434;2023-11-19T07:26:45;8.32;;;7.55;;
16662;SDS011;8445;51.270;9.434;2023-11-19T07:29:12;8.20;;;7.60;;
16662;SDS011;8445;51.270;9.434;2023-11-19T07:31:40;10.43;;;8.10;;
16662;SDS011;8445;51.270;9.434;2023-11-19T07:34:06;7.93;;;7.33;;
16662;SDS011;8445;51.270;9.434;2023-11-19T07:36:34;7.73;;;7.03;;
16662;SDS011;8445;51.270;9.434;2023-11-19T07:39:01;7.95;;;7.28;;
16662;SDS011;8445;51.270;9.434;2023-11-19T07:41:27;8.50;;;7.70;;
16662;SDS011;8445;51.270;9.434;2023-11-19T07:43:53;7.80;;;7.20;;
16662;SDS011;8445;51.270;9.434;2023-11-19T07:46:20;7.97;;;7.40;;
16662;SDS011;8445;51.270;9.434;2023-11-19T07:48:46;7.63;;;6.97;;
16662;SDS011;8445;51.270;9.434;2023-11-19T07:51:12;8.15;;;7.47;;
16662;SDS011;8445;51.270;9.434;2023-11-19T07:53:39;8.43;;;7.60;;
16662;SDS011;8445;51.270;9.434;2023-11-19T07:56:07;8.13;;;7.43;;
16662;SDS011;8445;51.270;9.434;2023-11-19T07:58:34;7.32;;;6.82;;
16662;SDS011;8445;51.270;9.434;2023-11-19T08:01:00;7.60;;;7.10;;
16662;SDS011;8445;51.270;9.434;2023-11-19T08:03:28;8.27;;;7.68;;
16662;SDS011;8445;51.270;9.434;2023-11-19T08:05:55;11.48;;;8.02;;
16662;SDS011;8445;51.270;9.434;2023-11-19T08:08:24;7.40;;;6.80;;
16662;SDS011;8445;51.270;9.434;2023-11-19T08:10:50;9.60;;;7.30;;
16662;SDS011;8445;51.270;9.434;2023-11-19T08:13:19;6.72;;;6.22;;
16662;SDS011;8445;51.270;9.434;2023-11-19T08:15:45;7.10;;;6.50;;
16662;SDS011;8445;51.270;9.434;2023-11-19T08:18:12;11.07;;;7.05;;
16662;SDS011;8445;51.270;9.434;2023-11-19T08:20:38;8.15;;;6.95;;
16662;SDS011;8445;51.270;9.434;2023-11-19T08:23:04;7.45;;;6.65;;
16662;SDS011;8445;51.270;9.434;2023-11-19T08:25:31;7.25;;;6.45;;
16662;SDS011;8445;51.270;9.434;2023-11-19T08:27:59;7.10;;;6.47;;
16662;SDS011;8445;51.270;9.434;2023-11-19T08:30:25;10.05;;;6.70;;
16662;SDS011;8445;51.270;9.434;2023-11-19T08:32:52;7.68;;;6.97;;
16662;SDS011;8445;51.270;9.434;2023-11-19T08:35:18;9.85;;;7.28;;
16662;SDS011;8445;51.270;9.434;2023-11-19T08:37:44;9.35;;;7.65;;
16662;SDS011;8445;51.270;9.434;2023-11-19T08:40:11;10.23;;;6.85;;
16662;SDS011;8445;51.270;9.434;2023-11-19T08:42:40;9.10;;;5.63;;
16662;SDS011;8445;51.270;9.434;2023-11-19T08:45:06;14.75;;;5.95;;
16662;SDS011;8445;51.270;9.434;2023-11-19T08:47:37;13.80;;;7.03;;
16662;SDS011;8445;51.270;9.434;2023-11-19T08:50:03;12.98;;;7.95;;
16662;SDS011;8445;51.270;9.434;2023-11-19T08:52:30;13.40;;;6.57;;
16662;SDS011;8445;51.270;9.434;2023-11-19T08:54:56;18.75;;;6.32;;
16662;SDS011;8445;51.270;9.434;2023-11-19T08:57:22;22.02;;;7.40;;
16662;SDS011;8445;51.270;9.434;2023-11-19T08:59:48;12.65;;;6.80;;
16662;SDS011;8445;51.270;9.434;2023-11-19T09:02:14;12.90;;;6.30;;
16662;SDS011;8445;51.270;9.434;2023-11-19T09:04:41;18.17;;;6.25;;
16662;SDS011;8445;51.270;9.434;2023-11-19T09:07:07;11.77;;;6.28;;
16662;SDS011;8445;51.270;9.434;2023-11-19T09:09:34;20.00;;;8.32;;
16662;SDS011;8445;51.270;9.434;2023-11-19T09:12:02;14.10;;;7.30;;
16662;SDS011;8445;51.270;9.434;2023-11-19T09:14:29;18.35;;;8.52;;
16662;SDS011;8445;51.270;9.434;2023-11-19T09:16:55;15.57;;;7.95;;
16662;SDS011;8445;51.270;9.434;2023-11-19T09:19:23;16.30;;;7.90;;
16662;SDS011;8445;51.270;9.434;2023-11-19T09:21:49;19.35;;;8.38;;
16662;SDS011;8445;51.270;9.434;2023-11-19T09:24:15;21.63;;;8.88;;
16662;SDS011;8445;51.270;9.434;2023-11-19T09:26:41;18.05;;;8.38;;
16662;SDS011;8445;51.270;9.434;2023-11-19T09:29:08;18.35;;;8.05;;
16662;SDS011;8445;51.270;9.434;2023-11-19T09:31:34;13.95;;;8.68;;
16662;SDS011;8445;51.270;9.434;2023-11-19T09:34:00;14.25;;;8.02;;
16662;SDS011;8445;51.270;9.434;2023-11-19T09:36:26;17.23;;;8.02;;
16662;SDS011;8445;51.270;9.434;2023-11-19T09:38:52;23.98;;;8.82;;
16662;SDS011;8445;51.270;9.434;2023-11-19T09:41:18;16.92;;;8.57;;
16662;SDS011;8445;51.270;9.434;2023-11-19T09:43:44;13.88;;;7.82;;
16662;SDS011;8445;51.270;9.434;2023-11-19T09:46:12;13.75;;;7.90;;
16662;SDS011;8445;51.270;9.434;2023-11-19T09:48:40;19.10;;;8.80;;
16662;SDS011;8445;51.270;9.434;2023-11-19T09:51:08;16.75;;;8.13;;
16662;SDS011;8445;51.270;9.434;2023-11-19T09:53:36;18.02;;;8.52;;
16662;SDS011;8445;51.270;9.434;2023-11-19T09:56:03;17.35;;;8.10;;
16662;SDS011;8445;51.270;9.434;2023-11-19T09:58:31;15.38;;;6.95;;
16662;SDS011;8445;51.270;9.434;2023-11-19T10:00:58;17.98;;;8.57;;
16662;SDS011;8445;51.270;9.434;2023-11-19T10:03:30;16.27;;;8.05;;
16662;SDS011;8445;51.270;9.434;2023-11-19T10:06:07;21.33;;;7.65;;
16662;SDS011;8445;51.270;9.434;2023-11-19T10:08:37;20.60;;;8.60;;
16662;SDS011;8445;51.270;9.434;2023-11-19T10:11:07;17.50;;;8.80;;
16662;SDS011;8445;51.270;9.434;2023-11-19T10:13:38;18.02;;;7.80;;
16662;SDS011;8445;51.270;9.434;2023-11-19T10:16:07;13.75;;;7.05;;
16662;SDS011;8445;51.270;9.434;2023-11-19T10:18:36;14.77;;;6.88;;
16662;SDS011;8445;51.270;9.434;2023-11-19T10:21:06;17.27;;;7.63;;
16662;SDS011;8445;51.270;9.434;2023-11-19T10:26:21;13.68;;;6.80;;
16662;SDS011;8445;51.270;9.434;2023-11-19T10:28:48;16.38;;;8.40;;
16662;SDS011;8445;51.270;9.434;2023-11-19T10:31:15;14.75;;;8.18;;
16662;SDS011;8445;51.270;9.434;2023-11-19T10:33:43;12.93;;;7.55;;
16662;SDS011;8445;51.270;9.434;2023-11-19T10:36:10;17.58;;;8.25;;
16662;SDS011;8445;51.270;9.434;2023-11-19T10:38:37;18.40;;;8.80;;
16662;SDS011;8445;51.270;9.434;2023-11-19T10:41:07;14.68;;;7.15;;
16662;SDS011;8445;51.270;9.434;2023-11-19T10:43:53;17.25;;;8.23;;
16662;SDS011;8445;51.270;9.434;2023-11-19T10:46:23;11.10;;;7.55;;
16662;SDS011;8445;51.270;9.434;2023-11-19T10:49:10;17.27;;;7.35;;
16662;SDS011;8445;51.270;9.434;2023-11-19T10:51:39;14.88;;;7.05;;
16662;SDS011;8445;51.270;9.434;2023-11-19T10:54:13;17.70;;;7.43;;
16662;SDS011;8445;51.270;9.434;2023-11-19T10:56:44;19.52;;;8.75;;
16662;SDS011;8445;51.270;9.434;2023-11-19T10:59:30;17.50;;;8.43;;
16662;SDS011;8445;51.270;9.434;2023-11-19T11:02:03;13.20;;;7.80;;
16662;SDS011;8445;51.270;9.434;2023-11-19T11:04:39;16.85;;;7.60;;
16662;SDS011;8445;51.270;9.434;2023-11-19T11:07:07;18.02;;;8.10;;
16662;SDS011;8445;51.270;9.434;2023-11-19T11:09:36;15.95;;;6.93;;
16662;SDS011;8445;51.270;9.434;2023-11-19T11:12:05;17.35;;;6.50;;
16662;SDS011;8445;51.270;9.434;2023-11-19T11:14:33;20.65;;;7.38;;
16662;SDS011;8445;51.270;9.434;2023-11-19T11:17:08;13.82;;;6.60;;
16662;SDS011;8445;51.270;9.434;2023-11-19T11:19:42;17.35;;;6.18;;
16662;SDS011;8445;51.270;9.434;2023-11-19T11:22:12;17.88;;;7.18;;
16662;SDS011;8445;51.270;9.434;2023-11-19T11:24:57;14.00;;;6.97;;
16662;SDS011;8445;51.270;9.434;2023-11-19T11:34:47;15.43;;;6.32;;
16662;SDS011;8445;51.270;9.434;2023-11-19T11:37:38;18.63;;;6.78;;
16662;SDS011;8445;51.270;9.434;2023-11-19T11:40:16;18.30;;;6.60;;
16662;SDS011;8445;51.270;9.434;2023-11-19T11:42:49;16.20;;;5.82;;
16662;SDS011;8445;51.270;9.434;2023-11-19T11:45:19;15.50;;;6.55;;
16662;SDS011;8445;51.270;9.434;2023-11-19T11:48:11;19.58;;;6.43;;
16662;SDS011;8445;51.270;9.434;2023-11-19T11:50:54;16.20;;;7.72;;
16662;SDS011;8445;51.270;9.434;2023-11-19T11:53:23;14.40;;;6.57;;
16662;SDS011;8445;51.270;9.434;2023-11-19T11:58:27;16.13;;;7.38;;
16662;SDS011;8445;51.270;9.434;2023-11-19T12:00:59;16.02;;;7.13;;
16662;SDS011;8445;51.270;9.434;2023-11-19T12:03:28;14.13;;;6.70;;
16662;SDS011;8445;51.270;9.434;2023-11-19T12:05:56;16.58;;;5.70;;
16662;SDS011;8445;51.270;9.434;2023-11-19T12:08:27;23.13;;;8.15;;
16662;SDS011;8445;51.270;9.434;2023-11-19T12:10:55;15.70;;;6.13;;
16662;SDS011;8445;51.270;9.434;2023-11-19T12:13:23;14.50;;;6.30;;
16662;SDS011;8445;51.270;9.434;2023-11-19T12:18:23;15.50;;;5.90;;
16662;SDS011;8445;51.270;9.434;2023-11-19T12:20:52;13.68;;;6.18;;
16662;SDS011;8445;51.270;9.434;2023-11-19T12:23:22;15.85;;;6.30;;
16662;SDS011;8445;51.270;9.434;2023-11-19T12:25:49;16.77;;;6.28;;
16662;SDS011;8445;51.270;9.434;2023-11-19T12:28:16;15.73;;;6.22;;
16662;SDS011;8445;51.270;9.434;2023-11-19T12:30:45;13.27;;;6.32;;
16662;SDS011;8445;51.270;9.434;2023-11-19T12:33:16;13.93;;;6.05;;
16662;SDS011;8445;51.270;9.434;2023-11-19T12:35:47;23.35;;;6.78;;
16662;SDS011;8445;51.270;9.434;2023-11-19T12:38:24;15.68;;;6.32;;
16662;SDS011;8445;51.270;9.434;2023-11-19T12:41:07;13.95;;;6.47;;
16662;SDS011;8445;51.270;9.434;2023-11-19T12:43:38;15.13;;;5.88;;
16662;SDS011;8445;51.270;9.434;2023-11-19T12:48:49;12.50;;;6.03;;
16662;SDS011;8445;51.270;9.434;2023-11-19T12:51:16;14.07;;;5.68;;
16662;SDS011;8445;51.270;9.434;2023-11-19T12:56:23;18.38;;;6.63;;
16662;SDS011;8445;51.270;9.434;2023-11-19T12:59:01;16.52;;;6.18;;
16662;SDS011;8445;51.270;9.434;2023-11-19T13:01:39;20.60;;;6.63;;
16662;SDS011;8445;51.270;9.434;2023-11-19T13:04:22;16.08;;;5.97;;
16662;SDS011;8445;51.270;9.434;2023-11-19T13:06:58;16.80;;;6.93;;
16662;SDS011;8445;51.270;9.434;2023-11-19T13:09:26;12.25;;;6.20;;
16662;SDS011;8445;51.270;9.434;2023-11-19T13:11:53;17.38;;;6.63;;
16662;SDS011;8445;51.270;9.434;2023-11-19T13:14:20;16.45;;;6.25;;
16662;SDS011;8445;51.270;9.434;2023-11-19T13:16:46;13.75;;;5.68;;
16662;SDS011;8445;51.270;9.434;2023-11-19T13:19:13;13.82;;;5.90;;
16662;SDS011;8445;51.270;9.434;2023-11-19T13:21:44;17.52;;;6.68;;
16662;SDS011;8445;51.270;9.434;2023-11-19T13:24:13;16.85;;;6.55;;
16662;SDS011;8445;51.270;9.434;2023-11-19T13:26:44;14.07;;;5.78;;
16662;SDS011;8445;51.270;9.434;2023-11-19T13:29:16;24.25;;;11.27;;
16662;SDS011;8445;51.270;9.434;2023-11-19T13:31:44;16.10;;;6.85;;
16662;SDS011;8445;51.270;9.434;2023-11-19T13:34:13;15.82;;;6.65;;
16662;SDS011;8445;51.270;9.434;2023-11-19T13:36:41;17.10;;;6.82;;
16662;SDS011;8445;51.270;9.434;2023-11-19T13:39:09;14.50;;;6.47;;
16662;SDS011;8445;51.270;9.434;2023-11-19T13:41:37;16.58;;;6.15;;
16662;SDS011;8445;51.270;9.434;2023-11-19T13:44:03;19.88;;;6.40;;
16662;SDS011;8445;51.270;9.434;2023-11-19T13:46:29;15.10;;;6.70;;
16662;SDS011;8445;51.270;9.434;2023-11-19T13:48:55;17.17;;;6.22;;
16662;SDS011;8445;51.270;9.434;2023-11-19T13:51:21;16.13;;;6.00;;
16662;SDS011;8445;51.270;9.434;2023-11-19T13:53:47;12.10;;;5.78;;
16662;SDS011;8445;51.270;9.434;2023-11-19T13:56:15;12.77;;;6.30;;
16662;SDS011;8445;51.270;9.434;2023-11-19T13:58:42;17.02;;;7.35;;
16662;SDS011;8445;51.270;9.434;2023-11-19T14:01:09;14.10;;;6.43;;
16662;SDS011;8445;51.270;9.434;2023-11-19T14:03:41;17.77;;;6.45;;
16662;SDS011;8445;51.270;9.434;2023-11-19T14:06:07;16.27;;;6.53;;
16662;SDS011;8445;51.270;9.434;2023-11-19T14:08:33;16.33;;;5.93;;
16662;SDS011;8445;51.270;9.434;2023-11-19T14:11:02;12.15;;;5.43;;
16662;SDS011;8445;51.270;9.434;2023-11-19T14:13:40;20.08;;;6.53;;
16662;SDS011;8445;51.270;9.434;2023-11-19T14:16:11;10.55;;;5.95;;
16662;SDS011;8445;51.270;9.434;2023-11-19T14:18:37;16.25;;;6.28;;
16662;SDS011;8445;51.270;9.434;2023-11-19T14:21:05;14.68;;;6.13;;
16662;SDS011;8445;51.270;9.434;2023-11-19T14:23:31;17.55;;;6.10;;
16662;SDS011;8445;51.270;9.434;2023-11-19T14:25:57;15.00;;;6.38;;
16662;SDS011;8445;51.270;9.434;2023-11-19T14:28:23;14.23;;;6.82;;
16662;SDS011;8445;51.270;9.434;2023-11-19T14:30:51;11.15;;;6.35;;
16662;SDS011;8445;51.270;9.434;2023-11-19T14:33:22;15.10;;;6.53;;
16662;SDS011;8445;51.270;9.434;2023-11-19T14:35:54;19.65;;;7.13;;
16662;SDS011;8445;51.270;9.434;2023-11-19T14:38:23;15.85;;;7.10;;
16662;SDS011;8445;51.270;9.434;2023-11-19T14:40:49;17.02;;;6.25;;
16662;SDS011;8445;51.270;9.434;2023-11-19T14:43:15;13.02;;;5.88;;
16662;SDS011;8445;51.270;9.434;2023-11-19T14:45:43;13.77;;;5.80;;
16662;SDS011;8445;51.270;9.434;2023-11-19T14:48:11;12.60;;;6.30;;
16662;SDS011;8445;51.270;9.434;2023-11-19T14:50:40;13.02;;;6.53;;
16662;SDS011;8445;51.270;9.434;2023-11-19T14:53:12;15.02;;;6.25;;
16662;SDS011;8445;51.270;9.434;2023-11-19T14:55:41;17.10;;;6.82;;
16662;SDS011;8445;51.270;9.434;2023-11-19T14:58:08;20.75;;;6.72;;
16662;SDS011;8445;51.270;9.434;2023-11-19T15:00:34;16.38;;;6.60;;
16662;SDS011;8445;51.270;9.434;2023-11-19T15:03:01;18.00;;;6.95;;
16662;SDS011;8445;51.270;9.434;2023-11-19T15:05:27;18.20;;;7.05;;
16662;SDS011;8445;51.270;9.434;2023-11-19T15:07:55;13.63;;;6.53;;
16662;SDS011;8445;51.270;9.434;2023-11-19T15:10:25;18.80;;;7.32;;
16662;SDS011;8445;51.270;9.434;2023-11-19T15:12:55;18.88;;;8.52;;
16662;SDS011;8445;51.270;9.434;2023-11-19T15:15:28;15.75;;;7.13;;
16662;SDS011;8445;51.270;9.434;2023-11-19T15:17:57;15.57;;;6.93;;
16662;SDS011;8445;51.270;9.434;2023-11-19T15:20:24;17.35;;;6.68;;